Home > Products > Valid Products > TAF

000
FTUS44 KMOB 242300
TAFPNS
TAF
KPNS 242326Z 2500/2524 35003KT P6SM SKC
     FM251500 01007KT P6SM SKC=



000
FTUS44 KMOB 242300
TAFMOB
TAF
KMOB 242326Z 2500/2524 33003KT P6SM SKC
     FM251500 01007KT P6SM SKC=



000
FTUS44 KMOB 241700
TAFPNS
TAF
KPNS 241730Z 2418/2518 01007KT P6SM SKC
     FM251500 01006KT P6SM SKC=



000
FTUS44 KMOB 241700
TAFMOB
TAF
KMOB 241730Z 2418/2518 34007KT P6SM SKC
     FM251500 01006KT P6SM SKC=



000
FTUS44 KMOB 241100
TAFMOB
TAF
KMOB 241120Z 2412/2512 35004KT P6SM BKN150
     FM241700 35007KT P6SM SKC
     FM250200 VRB03KT P6SM SKC=



000
FTUS44 KMOB 241100
TAFPNS
TAF
KPNS 241120Z 2412/2512 36006KT P6SM SKC
     FM241700 35007KT P6SM SKC
     FM250200 35004KT P6SM SKC=



000
FTUS44 KMOB 240500
TAFMOB
TAF
KMOB 240520Z 2406/2506 36005KT P6SM BKN150
     FM241700 35007KT P6SM SKC=



000
FTUS44 KMOB 240500
TAFPNS
TAF
KPNS 240520Z 2406/2506 01005KT P6SM BKN150
     FM241700 35007KT P6SM SKC=



000
FTUS44 KMOB 232300
TAFPNS
TAF
KPNS 232320Z 2400/2424 36004KT P6SM BKN150
     FM241700 01007KT P6SM SKC=



000
FTUS44 KMOB 232300
TAFMOB
TAF
KMOB 232320Z 2400/2424 01004KT P6SM BKN150
     FM241700 35007KT P6SM SKC=



000
FTUS44 KMOB 231700
TAFPNS
TAF
KPNS 231720Z 2318/2418 08006KT P6SM SKC
     FM240300 02003KT P6SM SCT250
     FM241500 02006KT P6SM SKC=



000
FTUS44 KMOB 231700
TAFMOB
TAF
KMOB 231720Z 2318/2418 10006KT P6SM SKC
     FM240300 VRB03KT P6SM SCT250
     FM241500 02006KT P6SM SKC=



000
FTUS44 KMOB 231100
TAFPNS
TAF
KPNS 231134Z 2312/2412 03006KT P6SM SKC
     FM231500 05007KT P6SM SKC
     FM240300 02003KT P6SM SCT250=



000
FTUS44 KMOB 231100
TAFMOB
TAF
KMOB 231134Z 2312/2412 02004KT P6SM SKC
     FM231500 05008KT P6SM SKC
     FM240300 36002KT P6SM SCT250=



000
FTUS44 KMOB 230500
TAFPNS
TAF
KPNS 230527Z 2306/2406 03006KT P6SM SKC
     FM231500 04007KT P6SM SKC=



000
FTUS44 KMOB 230500
TAFMOB
TAF
KMOB 230527Z 2306/2406 02004KT P6SM SKC
     FM231500 03008KT P6SM SKC=



000
FTUS44 KMOB 222300
TAFMOB
TAF
KMOB 222327Z 2300/2324 01006KT P6SM SKC
     FM231500 03008KT P6SM SKC=



000
FTUS44 KMOB 222300
TAFPNS
TAF
KPNS 222327Z 2300/2324 01006KT P6SM SKC
     FM231500 04007KT P6SM SKC=



000
FTUS44 KMOB 221700 RRA
TAFMOB
TAF
KMOB 221755Z 2218/2318 05009KT P6SM SKC
     FM230300 01005KT P6SM SKC
     FM231300 03008KT P6SM SKC=



000
FTUS44 KMOB 221700 RRA
TAFPNS
TAF
KPNS 221755Z 2218/2318 01005KT P6SM SKC
     FM230300 02005KT P6SM SKC
     FM231300 04007KT P6SM SKC=



000
FTUS44 KMOB 221700 RRA
TAFPNS
TAF
KPNS 221755Z 2218/2318 01005KT P6SM SKC
     FM230300 02005KT P6SM SKC
     FM231300 04007KT P6SM SKC=



000
FTUS44 KMOB 221700 RRA
TAFMOB
TAF
KMOB 221755Z 2218/2318 05009KT P6SM SKC
     FM230300 01005KT P6SM SKC
     FM231300 03008KT P6SM SKC=



000
FTUS44 KMOB 221100
TAFPNS
TAF
KPNS 221125Z 2212/2312 01004KT P6SM SKC
     FM221500 01007KT P6SM SKC
     FM230300 02005KT P6SM SKC=



000
FTUS44 KMOB 221100
TAFMOB
TAF
KMOB 221125Z 2212/2312 02005KT P6SM SKC
     FM221500 02008KT P6SM SKC
     FM230300 01005KT P6SM SKC=



000
FTUS44 KMOB 220500
TAFMOB
TAF
KMOB 220529Z 2206/2306 36006KT P6SM SKC
     FM221500 02007KT P6SM SKC=



000
FTUS44 KMOB 220500
TAFPNS
TAF
KPNS 220529Z 2206/2306 36004KT P6SM SKC
     FM221500 01007KT P6SM SKC=



000
FTUS44 KMOB 220500
TAFMOB
TAF
KMOB 220529Z 2206/2306 36006KT P6SM SKC
     FM221500 02007KT P6SM SKC=



000
FTUS44 KMOB 220500
TAFPNS
TAF
KPNS 220529Z 2206/2306 36004KT P6SM SKC
     FM221500 01007KT P6SM SKC=



    US Dept of Commerce
    National Oceanic and Atmospheric Administration
    National Weather Service
    1325 East West Highway
    Silver Spring, MD 20910
    Page Author: NWS Internet Services Team
Disclaimer
Information Quality
Credits
Glossary
Privacy Policy
Freedom of Information Act (FOIA)
About Us
Career Opportunities